createdAt,value
2023-04-10T00:00:57.674Z,4.12
2023-04-10T00:03:27.662Z,4.10
2023-04-10T00:05:57.676Z,4.07
2023-04-10T00:08:27.285Z,3.98
2023-04-10T00:10:57.285Z,3.93
2023-04-10T00:13:26.080Z,3.96
2023-04-10T00:15:54.693Z,3.99
2023-04-10T00:18:23.334Z,3.90
2023-04-10T00:20:51.911Z,3.92
2023-04-10T00:23:20.473Z,3.92
2023-04-10T00:25:49.765Z,3.89
2023-04-10T00:28:19.721Z,3.79
2023-04-10T00:30:48.321Z,3.82
2023-04-10T00:33:17.045Z,3.79
2023-04-10T00:35:45.760Z,3.72
2023-04-10T00:38:14.723Z,3.75
2023-04-10T00:40:43.371Z,3.72
2023-04-10T00:43:12.276Z,3.64
2023-04-10T00:45:42.650Z,3.67
2023-04-10T00:48:12.050Z,3.76
2023-04-10T00:50:40.880Z,3.61
2023-04-10T00:53:09.594Z,3.64
2023-04-10T00:55:38.588Z,3.63
2023-04-10T00:58:08.041Z,3.56
2023-04-10T01:00:36.716Z,3.56
2023-04-10T01:03:07.012Z,3.54
2023-04-10T01:05:43.118Z,3.56
2023-04-10T01:08:28.525Z,3.38
2023-04-10T01:11:06.502Z,3.41
2023-04-10T01:13:45.119Z,3.29
2023-04-10T01:16:27.953Z,3.37
2023-04-10T01:19:13.684Z,3.20
2023-04-10T01:21:44.022Z,3.26
2023-04-10T01:24:26.084Z,3.37
2023-04-10T01:27:13.778Z,3.32
2023-04-10T01:29:53.408Z,3.35
2023-04-10T01:32:25.553Z,3.32
2023-04-10T01:34:59.981Z,3.28
2023-04-10T01:37:33.636Z,3.21
2023-04-10T01:40:07.127Z,3.18
2023-04-10T01:42:41.989Z,3.12
2023-04-10T01:45:20.169Z,3.09
2023-04-10T01:47:51.410Z,3.17
2023-04-10T01:50:23.515Z,3.09
2023-04-10T01:52:53.034Z,3.13
2023-04-10T01:55:26.241Z,3.09
2023-04-10T01:58:04.906Z,3.04
2023-04-10T02:00:41.335Z,3.00
2023-04-10T02:03:10.649Z,3.00
2023-04-10T02:05:54.487Z,2.90
2023-04-10T02:08:36.116Z,2.98
2023-04-10T02:11:17.198Z,2.87
2023-04-10T02:13:47.331Z,2.90
2023-04-10T02:16:23.250Z,2.82
2023-04-10T02:18:54.960Z,2.79
2023-04-10T02:21:23.601Z,2.73
2023-04-10T02:23:53.033Z,2.64
2023-04-10T02:26:21.801Z,2.65
2023-04-10T02:28:50.404Z,2.79
2023-04-10T02:31:20.582Z,2.76
2023-04-10T02:33:49.910Z,2.72
2023-04-10T02:36:18.886Z,2.69
2023-04-10T02:38:47.655Z,2.55
2023-04-10T02:41:17.115Z,2.53
2023-04-10T02:43:45.952Z,2.63
2023-04-10T02:46:14.740Z,2.57
2023-04-10T02:48:45.155Z,2.58
2023-04-10T02:51:14.197Z,2.50
2023-04-10T02:53:42.935Z,2.60
2023-04-10T02:56:12.790Z,2.55
2023-04-10T02:58:45.535Z,2.58
2023-04-10T03:01:16.278Z,2.65
2023-04-10T03:03:48.553Z,2.54
2023-04-10T03:06:27.352Z,2.58
2023-04-10T03:08:57.442Z,2.60
2023-04-10T03:11:26.093Z,2.81
2023-04-10T03:13:55.107Z,2.69
2023-04-10T03:16:24.083Z,2.62
2023-04-10T03:18:54.470Z,2.62
2023-04-10T03:21:23.291Z,2.76
2023-04-10T03:23:52.636Z,2.69
2023-04-10T03:26:24.128Z,2.60
2023-04-10T03:28:53.578Z,2.64
2023-04-10T03:31:22.337Z,2.67
2023-04-10T03:33:56.321Z,2.67
2023-04-10T03:36:25.346Z,2.77
2023-04-10T03:38:55.528Z,2.81
2023-04-10T03:41:25.687Z,2.79
2023-04-10T03:43:54.766Z,2.95
2023-04-10T03:46:23.962Z,3.04
2023-04-10T03:48:54.247Z,3.02
2023-04-10T03:51:26.744Z,3.12
2023-04-10T03:53:55.977Z,3.09
2023-04-10T03:56:24.909Z,3.04
2023-04-10T03:58:53.536Z,2.99
2023-04-10T04:01:22.965Z,3.01
2023-04-10T04:04:06.117Z,3.09
2023-04-10T04:06:54.332Z,3.09
2023-04-10T04:09:49.268Z,3.22
2023-04-10T04:12:23.024Z,3.26
2023-04-10T04:15:18.125Z,3.19
2023-04-10T04:18:05.319Z,3.24
2023-04-10T04:20:39.421Z,3.35
2023-04-10T04:23:35.618Z,3.40
2023-04-10T04:26:11.629Z,3.40
2023-04-10T04:29:02.108Z,3.48
2023-04-10T04:31:54.257Z,3.48
2023-04-10T04:34:37.201Z,3.55
2023-04-10T04:37:28.322Z,3.65
2023-04-10T04:40:17.636Z,3.70
2023-04-10T04:43:01.595Z,3.76
2023-04-10T04:45:56.822Z,3.81
2023-04-10T04:48:51.640Z,3.83
2023-04-10T04:51:38.513Z,3.86
2023-04-10T04:54:27.052Z,3.93
2023-04-10T04:57:17.225Z,3.91
2023-04-10T04:59:57.676Z,4.06
2023-04-10T05:02:46.258Z,4.16
2023-04-10T05:05:50.510Z,4.28
2023-04-10T05:08:37.848Z,4.35
2023-04-10T05:11:25.054Z,4.38
2023-04-10T05:14:13.694Z,4.35
2023-04-10T05:17:02.903Z,4.31
2023-04-10T05:19:47.348Z,4.51
2023-04-10T05:22:41.150Z,4.68
2023-04-10T05:25:36.410Z,4.75
2023-04-10T05:28:30.943Z,4.86
2023-04-10T05:31:20.697Z,4.98
2023-04-10T05:33:57.739Z,5.04
2023-04-10T05:36:45.337Z,5.06
2023-04-10T05:39:25.396Z,5.09
2023-04-10T05:42:11.619Z,5.30
2023-04-10T05:44:54.158Z,5.35
2023-04-10T05:47:44.130Z,5.39
2023-04-10T05:50:42.222Z,5.63
2023-04-10T05:53:33.715Z,5.60
2023-04-10T05:56:22.697Z,5.73
2023-04-10T05:58:59.944Z,5.70
2023-04-10T06:01:48.376Z,5.78
2023-04-10T06:04:19.096Z,5.68
2023-04-10T06:06:48.349Z,5.75
2023-04-10T06:09:17.019Z,5.76
2023-04-10T06:11:45.758Z,5.92
2023-04-10T06:14:20.352Z,5.91
2023-04-10T06:16:49.176Z,6.14
2023-04-10T06:19:19.247Z,6.25
2023-04-10T06:21:47.946Z,6.33
2023-04-10T06:24:16.575Z,6.33
2023-04-10T06:26:49.418Z,6.42
2023-04-10T06:29:18.143Z,6.56
2023-04-10T06:31:46.870Z,6.63
2023-04-10T06:34:15.619Z,6.68
2023-04-10T06:36:55.528Z,6.87
2023-04-10T06:39:25.156Z,7.00
2023-04-10T06:41:54.552Z,7.13
2023-04-10T06:44:35.034Z,7.27
2023-04-10T06:47:03.940Z,7.31
2023-04-10T06:49:32.746Z,7.41
2023-04-10T06:52:02.792Z,7.48
2023-04-10T06:54:31.476Z,7.60
2023-04-10T06:57:00.056Z,7.62
2023-04-10T06:59:29.245Z,7.73
2023-04-10T07:01:57.892Z,7.87
2023-04-10T07:04:26.605Z,7.91
2023-04-10T07:06:55.194Z,7.98
2023-04-10T07:09:27.610Z,8.05
2023-04-10T07:11:56.562Z,8.19
2023-04-10T07:14:25.318Z,8.26
2023-04-10T07:16:54.160Z,8.29
2023-04-10T07:19:22.814Z,8.27
2023-04-10T07:32:03.125Z,8.54
2023-04-10T07:34:33.210Z,8.71
2023-04-10T07:37:01.737Z,8.75
2023-04-10T07:39:30.400Z,8.84
2023-04-10T07:41:58.985Z,8.93
2023-04-10T07:44:28.692Z,9.03
2023-04-10T07:46:57.288Z,9.12
2023-04-10T07:49:27.370Z,9.19
2023-04-10T07:51:55.981Z,9.30
2023-04-10T07:54:24.738Z,9.39
2023-04-10T07:56:53.997Z,9.44
2023-04-10T07:59:22.665Z,9.52
2023-04-10T08:01:51.523Z,9.63
2023-04-10T08:04:20.291Z,9.78
2023-04-10T08:06:50.686Z,9.93
2023-04-10T08:09:19.320Z,10.05
2023-04-10T08:11:48.543Z,10.17
2023-04-10T08:14:22.696Z,10.21
2023-04-10T08:16:52.900Z,10.31
2023-04-10T08:19:21.572Z,10.33
2023-04-10T08:21:51.704Z,10.43
2023-04-10T08:24:22.910Z,10.57
2023-04-10T08:26:51.580Z,10.68
2023-04-10T08:29:20.214Z,10.73
2023-04-10T08:31:49.762Z,10.86
2023-04-10T08:34:18.440Z,11.06
2023-04-10T08:36:48.641Z,11.14
2023-04-10T08:39:25.657Z,11.42
2023-04-10T08:41:57.384Z,11.52
2023-04-10T08:44:26.019Z,11.62
2023-04-10T08:46:55.786Z,11.75
2023-04-10T08:49:33.700Z,11.83
2023-04-10T08:52:08.431Z,12.01
2023-04-10T08:54:41.776Z,12.08
2023-04-10T08:57:17.725Z,12.18
2023-04-10T08:59:46.753Z,12.31
2023-04-10T09:02:15.821Z,12.41
2023-04-10T09:04:51.149Z,12.58
2023-04-10T09:07:20.107Z,12.62
2023-04-10T09:09:50.411Z,12.73
2023-04-10T09:12:19.103Z,12.80
2023-04-10T09:14:49.776Z,12.76
2023-04-10T09:17:20.891Z,12.91
2023-04-10T09:19:52.528Z,12.92
2023-04-10T09:22:32.653Z,13.06
2023-04-10T09:25:04.712Z,13.15
2023-04-10T09:27:36.145Z,13.24
2023-04-10T09:30:08.421Z,13.34
2023-04-10T09:32:40.755Z,13.39
2023-04-10T09:35:13.048Z,13.48
2023-04-10T09:37:42.794Z,13.57
2023-04-10T09:40:26.002Z,13.65
2023-04-10T09:42:56.855Z,13.74
2023-04-10T09:45:25.632Z,13.85
2023-04-10T09:48:06.158Z,13.98
2023-04-10T09:50:40.355Z,14.06
2023-04-10T09:53:10.122Z,14.13
2023-04-10T09:55:40.675Z,14.20
2023-04-10T09:58:10.578Z,14.25
2023-04-10T10:00:43.241Z,14.36
2023-04-10T10:03:15.316Z,14.43
2023-04-10T10:05:45.884Z,14.55
2023-04-10T10:08:16.660Z,14.63
2023-04-10T10:10:51.088Z,14.72
2023-04-10T10:13:30.116Z,14.83
2023-04-10T10:16:10.190Z,14.85
2023-04-10T10:18:46.901Z,14.93
2023-04-10T10:21:16.839Z,15.06
2023-04-10T10:23:54.066Z,15.05
2023-04-10T10:26:25.466Z,15.11
2023-04-10T10:28:55.010Z,15.18
2023-04-10T10:31:25.512Z,15.23
2023-04-10T10:33:55.213Z,15.32
2023-04-10T10:36:25.098Z,15.42
2023-04-10T10:39:09.798Z,15.45
2023-04-10T10:41:51.128Z,15.46
2023-04-10T10:44:33.242Z,15.48
2023-04-10T10:47:11.569Z,15.39
2023-04-10T10:49:58.346Z,15.46
2023-04-10T10:52:41.861Z,15.54
2023-04-10T10:55:31.583Z,15.61
2023-04-10T10:58:05.200Z,15.67
2023-04-10T11:01:20.400Z,15.80
2023-04-10T11:03:49.700Z,15.79
2023-04-10T11:06:20.056Z,15.85
2023-04-10T11:08:53.109Z,15.93
2023-04-10T11:11:24.342Z,16.02
2023-04-10T11:14:18.478Z,16.08
2023-04-10T11:16:49.004Z,16.15
2023-04-10T11:19:24.074Z,16.23
2023-04-10T11:22:08.086Z,16.27
2023-04-10T11:25:02.567Z,16.37
2023-04-10T11:27:45.039Z,16.43
2023-04-10T11:30:36.217Z,16.51
2023-04-10T11:33:06.766Z,16.58
2023-04-10T11:35:35.846Z,16.53
2023-04-10T11:38:25.504Z,16.65
2023-04-10T11:41:07.024Z,16.71
2023-04-10T11:43:35.966Z,16.77
2023-04-10T11:46:08.740Z,16.93
2023-04-10T11:48:38.474Z,16.95
2023-04-10T11:51:13.381Z,16.92
2023-04-10T11:53:43.299Z,16.92
2023-04-10T11:56:22.588Z,16.88
2023-04-10T11:58:55.136Z,16.86
2023-04-10T12:01:26.246Z,16.83
2023-04-10T12:03:57.843Z,16.99
2023-04-10T12:06:32.086Z,16.98
2023-04-10T12:09:03.135Z,17.11
2023-04-10T12:11:32.277Z,17.15
2023-04-10T12:14:03.424Z,17.22
2023-04-10T12:16:34.726Z,17.21
2023-04-10T12:19:04.032Z,17.09
2023-04-10T12:21:33.104Z,17.13
2023-04-10T12:24:01.808Z,17.18
2023-04-10T12:26:30.806Z,17.30
2023-04-10T12:29:00.074Z,17.30
2023-04-10T12:31:29.864Z,17.29
2023-04-10T12:34:01.296Z,17.40
2023-04-10T12:36:32.323Z,17.45
2023-04-10T12:39:02.408Z,17.39
2023-04-10T12:41:34.310Z,17.50
2023-04-10T12:44:11.951Z,17.45
2023-04-10T12:46:43.099Z,17.49
2023-04-10T12:49:16.086Z,17.65
2023-04-10T12:51:47.315Z,17.60
2023-04-10T12:54:33.639Z,17.58
2023-04-10T12:57:03.974Z,17.65
2023-04-10T12:59:32.904Z,17.68
2023-04-10T13:02:01.689Z,17.81
2023-04-10T13:04:33.309Z,17.80
2023-04-10T13:07:02.006Z,17.80
2023-04-10T13:09:30.644Z,17.66
2023-04-10T13:11:59.345Z,17.71
2023-04-10T13:14:27.966Z,17.73
2023-04-10T13:16:56.625Z,17.73
2023-04-10T13:19:25.288Z,17.77
2023-04-10T13:21:55.294Z,17.81
2023-04-10T13:24:23.944Z,17.91
2023-04-10T13:26:52.518Z,17.90
2023-04-10T13:29:21.404Z,18.00
2023-04-10T13:31:50.342Z,18.11
2023-04-10T13:34:19.006Z,17.94
2023-04-10T13:36:48.637Z,18.02
2023-04-10T13:39:19.092Z,18.03
2023-04-10T13:41:47.750Z,17.98
2023-04-10T13:44:16.658Z,18.06
2023-04-10T13:46:45.360Z,18.05
2023-04-10T13:49:17.114Z,18.07
2023-04-10T13:51:46.734Z,17.98
2023-04-10T13:54:17.098Z,17.83
2023-04-10T13:56:48.079Z,17.77
2023-04-10T13:59:16.811Z,17.64
2023-04-10T14:01:45.559Z,17.58
2023-04-10T14:04:14.776Z,17.46
2023-04-10T14:06:43.602Z,17.36
2023-04-10T14:09:12.392Z,17.39
2023-04-10T14:11:40.974Z,17.32
2023-04-10T14:14:11.395Z,17.35
2023-04-10T14:16:40.100Z,17.32
2023-04-10T14:19:08.776Z,17.24
2023-04-10T14:21:37.605Z,17.21
2023-04-10T14:24:06.290Z,17.20
2023-04-10T14:26:34.976Z,17.18
2023-04-10T14:29:03.739Z,17.20
2023-04-10T14:31:35.744Z,17.26
2023-04-10T14:34:07.816Z,17.21
2023-04-10T14:36:36.487Z,17.25
2023-04-10T14:39:05.232Z,17.22
2023-04-10T14:41:33.774Z,17.26
2023-04-10T14:44:03.423Z,17.35
2023-04-10T14:46:33.487Z,17.60
2023-04-10T14:49:02.189Z,17.72
2023-04-10T14:51:30.998Z,17.79
2023-04-10T14:53:59.641Z,17.74
2023-04-10T14:56:28.340Z,17.39
2023-04-10T14:58:57.031Z,16.91
2023-04-10T15:01:25.695Z,16.52
2023-04-10T15:03:55.961Z,16.12
2023-04-10T15:06:25.209Z,15.47
2023-04-10T15:08:53.915Z,15.28
2023-04-10T15:11:22.750Z,14.92
2023-04-10T15:13:51.485Z,14.86
2023-04-10T15:16:22.648Z,14.95
2023-04-10T15:18:53.827Z,14.95
2023-04-10T15:21:31.636Z,14.81
2023-04-10T15:24:10.744Z,14.76
2023-04-10T15:26:46.258Z,14.73
2023-04-10T15:29:15.499Z,14.89
2023-04-10T15:31:44.079Z,14.80
2023-04-10T15:34:12.740Z,14.93
2023-04-10T15:36:42.737Z,14.69
2023-04-10T15:39:11.928Z,14.79
2023-04-10T15:41:40.616Z,14.87
2023-04-10T15:44:09.328Z,14.98
2023-04-10T15:46:38.051Z,15.07
2023-04-10T15:49:06.697Z,14.83
2023-04-10T15:51:35.337Z,14.74
2023-04-10T15:54:05.794Z,14.74
2023-04-10T15:56:34.709Z,14.60
2023-04-10T15:59:03.369Z,14.60
2023-04-10T16:01:32.057Z,14.45
2023-04-10T16:04:00.814Z,14.47
2023-04-10T16:06:29.533Z,14.44
2023-04-10T16:08:58.112Z,14.11
2023-04-10T16:11:28.191Z,14.15
2023-04-10T16:13:56.946Z,14.06
2023-04-10T16:16:25.868Z,13.88
2023-04-10T16:18:55.020Z,13.91
2023-04-10T16:21:23.695Z,13.81
2023-04-10T16:23:52.804Z,13.75
2023-04-10T16:26:21.623Z,13.75
2023-04-10T16:28:51.766Z,13.51
2023-04-10T16:31:20.506Z,13.34
2023-04-10T16:33:49.325Z,13.25
2023-04-10T16:36:18.062Z,12.98
2023-04-10T16:38:49.856Z,13.00
2023-04-10T16:41:20.893Z,12.85
2023-04-10T16:43:51.433Z,12.70
2023-04-10T16:46:20.172Z,12.54
2023-04-10T16:48:48.988Z,12.48
2023-04-10T16:51:19.074Z,12.41
2023-04-10T16:53:48.020Z,12.34
2023-04-10T16:56:16.820Z,12.24
2023-04-10T16:58:45.554Z,12.13
2023-04-10T17:01:18.139Z,11.98
2023-04-10T17:03:47.604Z,11.94
2023-04-10T17:06:16.821Z,11.64
2023-04-10T17:08:45.860Z,11.55
2023-04-10T17:11:14.797Z,11.40
2023-04-10T17:13:43.830Z,11.19
2023-04-10T17:16:12.515Z,11.14
2023-04-10T17:18:43.214Z,10.94
2023-04-10T17:21:13.231Z,10.89
2023-04-10T17:23:42.485Z,10.70
2023-04-10T17:26:15.513Z,10.71
2023-04-10T17:28:46.667Z,10.67
2023-04-10T17:31:16.475Z,10.61
2023-04-10T17:33:46.620Z,10.58
2023-04-10T17:36:15.761Z,10.42
2023-04-10T17:38:44.795Z,10.36
2023-04-10T17:41:17.140Z,10.21
2023-04-10T17:43:45.688Z,10.20
2023-04-10T17:46:15.835Z,10.13
2023-04-10T17:48:46.799Z,10.07
2023-04-10T17:51:15.628Z,9.98
2023-04-10T17:53:45.076Z,9.87
2023-04-10T17:56:20.870Z,9.76
2023-04-10T17:58:49.620Z,9.67
2023-04-10T18:01:29.675Z,9.57
2023-04-10T18:04:00.426Z,9.45
2023-04-10T18:06:29.350Z,9.38
2023-04-10T18:08:58.182Z,9.20
2023-04-10T18:11:27.361Z,9.20
2023-04-10T18:13:56.037Z,9.16
2023-04-10T18:16:24.648Z,9.04
2023-04-10T18:18:54.116Z,9.02
2023-04-10T18:21:24.305Z,8.90
2023-04-10T18:23:53.054Z,8.80
2023-04-10T18:26:21.713Z,8.71
2023-04-10T18:28:50.430Z,8.59
2023-04-10T18:31:19.427Z,8.59
2023-04-10T18:33:56.168Z,8.46
2023-04-10T18:36:30.150Z,8.40
2023-04-10T18:38:58.857Z,8.24
2023-04-10T18:41:28.745Z,8.31
2023-04-10T18:44:04.976Z,8.21
2023-04-10T18:46:36.548Z,8.14
2023-04-10T18:49:06.609Z,8.11
2023-04-10T18:51:40.351Z,8.08
2023-04-10T18:54:09.607Z,8.07
2023-04-10T18:56:38.522Z,8.10
2023-04-10T18:59:07.315Z,7.98
2023-04-10T19:01:36.224Z,7.99
2023-04-10T19:04:05.228Z,7.86
2023-04-10T19:06:35.228Z,7.79
2023-04-10T19:09:05.428Z,7.75
2023-04-10T19:11:34.333Z,7.63
2023-04-10T19:14:03.040Z,7.70
2023-04-10T19:19:02.604Z,7.70
2023-04-10T19:21:31.682Z,7.68
2023-04-10T19:24:00.619Z,7.66
2023-04-10T19:26:30.765Z,7.57
2023-04-10T19:29:00.949Z,7.59
2023-04-10T19:31:30.918Z,7.56
2023-04-10T19:34:02.496Z,7.37
2023-04-10T19:36:31.466Z,7.35
2023-04-10T19:39:00.180Z,7.29
2023-04-10T19:41:30.191Z,7.31
2023-04-10T19:43:59.393Z,7.22
2023-04-10T19:46:28.329Z,7.26
2023-04-10T19:48:57.096Z,7.17
2023-04-10T19:51:25.773Z,7.05
2023-04-10T19:53:55.873Z,7.01
2023-04-10T19:56:26.687Z,6.94
2023-04-10T19:58:57.752Z,6.84
2023-04-10T20:01:26.802Z,6.77
2023-04-10T20:03:55.640Z,6.80
2023-04-10T20:06:24.697Z,6.63
2023-04-10T20:08:53.693Z,6.56
2023-04-10T20:11:22.940Z,6.60
2023-04-10T20:13:53.002Z,6.47
2023-04-10T20:16:24.294Z,6.47
2023-04-10T20:18:55.441Z,6.37
2023-04-10T20:21:24.187Z,6.45
2023-04-10T20:23:52.796Z,6.40
2023-04-10T20:26:21.468Z,6.39
2023-04-10T20:28:50.086Z,6.45
2023-04-10T20:31:18.797Z,6.35
2023-04-10T20:33:49.131Z,6.28
2023-04-10T20:36:17.918Z,6.28
2023-04-10T20:38:46.619Z,6.30
2023-04-10T20:41:15.251Z,6.30
2023-04-10T20:43:43.871Z,6.18
2023-04-10T20:46:12.479Z,6.08
2023-04-10T20:48:41.291Z,6.19
2023-04-10T20:51:11.531Z,6.27
2023-04-10T20:53:40.156Z,6.22
2023-04-10T20:56:09.448Z,6.10
2023-04-10T20:58:38.239Z,6.00
2023-04-10T21:01:09.762Z,5.98
2023-04-10T21:03:47.307Z,6.00
2023-04-10T21:06:18.259Z,5.97
2023-04-10T21:08:47.922Z,5.98
2023-04-10T21:11:16.472Z,5.87
2023-04-10T21:13:45.050Z,5.88
2023-04-10T21:16:13.750Z,5.78
2023-04-10T21:18:42.412Z,5.79
2023-04-10T21:21:11.167Z,5.77
2023-04-10T21:23:41.124Z,5.84
2023-04-10T21:26:10.234Z,5.73
2023-04-10T21:28:39.038Z,5.77
2023-04-10T21:31:08.182Z,5.73
2023-04-10T21:33:36.734Z,5.70
2023-04-10T21:36:06.519Z,5.66
2023-04-10T21:38:35.431Z,5.61
2023-04-10T21:41:05.598Z,5.64
2023-04-10T21:43:35.610Z,5.58
2023-04-10T21:46:04.266Z,5.71
2023-04-10T21:48:32.999Z,5.49
2023-04-10T21:51:03.514Z,5.49
2023-04-10T21:53:32.161Z,5.49
2023-04-10T21:56:00.723Z,5.49
2023-04-10T21:58:32.299Z,5.49
2023-04-10T22:01:01.733Z,5.38
2023-04-10T22:03:30.575Z,5.50
2023-04-10T22:05:59.279Z,5.44
2023-04-10T22:08:27.884Z,5.37
2023-04-10T22:10:56.594Z,5.29
2023-04-10T22:13:30.727Z,5.31
2023-04-10T22:16:03.013Z,5.27
2023-04-10T22:18:31.862Z,5.26
2023-04-10T22:21:00.487Z,5.27
2023-04-10T22:23:29.171Z,5.34
2023-04-10T22:26:00.268Z,5.24
2023-04-10T22:28:29.351Z,5.26
2023-04-10T22:31:01.027Z,5.22
2023-04-10T22:33:33.946Z,5.21
2023-04-10T22:36:05.759Z,5.32
2023-04-10T22:38:37.999Z,5.26
2023-04-10T22:41:07.974Z,5.28
2023-04-10T22:43:36.913Z,5.23
2023-04-10T22:46:07.304Z,5.17
2023-04-10T22:48:36.005Z,5.21
2023-04-10T22:51:04.719Z,5.18
2023-04-10T22:53:39.385Z,5.12
2023-04-10T22:56:14.048Z,5.09
2023-04-10T22:58:43.953Z,4.97
2023-04-10T23:01:24.235Z,4.95
2023-04-10T23:03:55.044Z,4.96
2023-04-10T23:06:28.395Z,4.91
2023-04-10T23:08:58.869Z,4.78
2023-04-10T23:11:31.093Z,4.71
2023-04-10T23:14:06.453Z,4.75
2023-04-10T23:16:41.227Z,4.68
2023-04-10T23:19:10.336Z,4.60
2023-04-10T23:21:40.628Z,4.65
2023-04-10T23:24:12.431Z,4.59
2023-04-10T23:26:43.930Z,4.62
2023-04-10T23:29:15.322Z,4.72
2023-04-10T23:31:48.866Z,4.51
2023-04-10T23:34:23.507Z,4.51
2023-04-10T23:36:53.381Z,4.51
2023-04-10T23:39:22.030Z,4.40
2023-04-10T23:41:50.610Z,4.51
2023-04-10T23:44:19.245Z,4.33
2023-04-10T23:46:49.498Z,4.21
2023-04-10T23:49:27.146Z,4.24
2023-04-10T23:52:04.368Z,4.11
2023-04-10T23:54:37.458Z,4.09
2023-04-10T23:57:27.591Z,4.09
2023-04-10T23:59:56.349Z,4.11
